Time;durP1;ratioP1;P1;durP2;ratioP2;P2;SDS_P1;SDS_P2;PMS_P1;PMS_P2;Temp;Humidity;BMP_temperature;BMP_pressure;BME280_temperature;BME280_humidity;BME280_pressure;Samples;Min_cycle;Max_cycle;Signal;HPM_P1;HPM_P2
2023/12/23 12:07:30;;;;;;;;;6.67;6.00;;;;;17.63;100.00;96723.19;6286401;27;97617;-59
2023/12/23 12:10:33;;;;;;;;;4.40;3.40;;;;;14.52;100.00;96718.50;6252533;27;96495;-59
2023/12/23 12:13:37;;;;;;;;;4.00;4.00;;;;;12.21;100.00;96716.03;6257642;27;96467;-58
2023/12/23 12:16:41;;;;;;;;;5.40;4.00;;;;;10.45;100.00;96728.63;6268209;27;96932;-58
2023/12/23 12:19:44;;;;;;;;;3.40;3.00;;;;;9.33;100.00;96723.25;6255220;27;96497;-59
2023/12/23 12:22:49;;;;;;;;;6.00;5.00;;;;;8.58;100.00;96724.63;6258645;27;96918;-58
2023/12/23 12:25:56;;;;;;;;;7.00;6.00;;;;;8.19;100.00;96734.03;6239724;27;96382;-58
2023/12/23 12:29:00;;;;;;;;;3.20;3.20;;;;;7.99;100.00;96731.19;6264170;27;97111;-59
2023/12/23 12:36:13;;;;;;;;;3.00;3.00;;;;;7.59;100.00;96737.84;710118;22;96451;-85
2023/12/23 12:39:19;;;;;;;;;3.00;3.00;;;;;7.32;100.00;96734.41;6219531;27;96730;-54
2023/12/23 12:42:24;;;;;;;;;3.00;3.00;;;;;7.22;100.00;96739.66;6241936;27;96594;-53
2023/12/23 12:45:27;;;;;;;;;3.60;3.00;;;;;7.12;100.00;96750.25;6244206;27;96186;-54
2023/12/23 12:48:31;;;;;;;;;2.75;2.75;;;;;6.99;100.00;96740.72;6238471;27;96270;-54
2023/12/23 12:51:36;;;;;;;;;5.00;5.00;;;;;6.99;100.00;96767.50;6240501;27;96246;-56
2023/12/23 12:54:42;;;;;;;;;5.00;5.00;;;;;6.88;100.00;96776.50;6240543;27;96545;-54
2023/12/23 12:57:46;;;;;;;;;4.00;4.00;;;;;6.91;100.00;96763.41;6222853;28;96863;-53
2023/12/23 13:00:50;;;;;;;;;5.40;4.40;;;;;6.80;100.00;96761.66;6236751;27;96246;-55
2023/12/23 13:03:53;;;;;;;;;5.60;5.00;;;;;6.95;100.00;96780.59;6251347;27;96442;-53
2023/12/23 13:06:56;;;;;;;;;5.00;4.20;;;;;6.82;100.00;96778.31;6229238;27;96283;-54
2023/12/23 13:10:01;;;;;;;;;5.40;5.00;;;;;6.59;100.00;96781.22;6216469;28;96590;-54
2023/12/23 13:13:04;;;;;;;;;4.60;4.00;;;;;6.48;100.00;96782.16;6190872;28;96264;-54
2023/12/23 13:16:08;;;;;;;;;4.00;3.00;;;;;6.52;100.00;96789.44;6193992;28;97470;-54
2023/12/23 13:19:11;;;;;;;;;5.00;4.00;;;;;6.50;100.00;96793.41;6198218;28;96229;-54
2023/12/23 13:22:14;;;;;;;;;6.00;6.00;;;;;6.56;100.00;96797.78;6194991;28;96573;-54
2023/12/23 13:25:18;;;;;;;;;5.00;5.00;;;;;6.50;100.00;96801.44;6198393;28;96314;-54
2023/12/23 13:28:22;;;;;;;;;5.00;5.00;;;;;6.42;100.00;96789.28;6187065;28;96535;-55
2023/12/23 13:31:25;;;;;;;;;5.00;5.00;;;;;6.41;100.00;96792.19;6197244;28;96332;-54
2023/12/23 13:34:28;;;;;;;;;6.60;6.00;;;;;6.38;100.00;96803.41;6196418;28;96267;-55
2023/12/23 13:37:31;;;;;;;;;5.00;5.00;;;;;6.32;100.00;96804.38;6196192;28;96281;-54
2023/12/23 13:40:36;;;;;;;;;5.00;4.00;;;;;6.15;100.00;96804.41;6193110;28;96801;-55
2023/12/23 13:43:39;;;;;;;;;7.00;6.25;;;;;6.05;100.00;96798.91;6177296;28;97732;-55
2023/12/23 13:46:42;;;;;;;;;6.60;6.00;;;;;6.00;100.00;96812.19;6197223;28;96454;-56
2023/12/23 13:49:45;;;;;;;;;7.00;6.00;;;;;5.89;100.00;96813.88;6189146;28;96220;-56
2023/12/23 13:52:48;;;;;;;;;5.00;5.00;;;;;6.00;100.00;96807.66;6194279;28;96300;-56
2023/12/23 13:55:53;;;;;;;;;5.00;5.00;;;;;6.02;100.00;96815.41;6199159;28;96304;-56
2023/12/23 13:58:56;;;;;;;;;5.00;5.00;;;;;5.94;100.00;96822.00;6185102;28;96335;-56
2023/12/23 14:01:59;;;;;;;;;6.50;6.50;;;;;6.04;100.00;96818.69;6188404;28;96712;-56
2023/12/23 14:05:03;;;;;;;;;8.00;6.00;;;;;5.96;100.00;96819.09;6192116;28;96706;-56
2023/12/23 14:08:07;;;;;;;;;7.00;6.00;;;;;6.00;100.00;96828.25;6201191;28;96464;-56
2023/12/23 14:11:12;;;;;;;;;8.00;7.60;;;;;6.01;100.00;96836.00;6197500;28;96650;-57
2023/12/23 14:14:15;;;;;;;;;5.00;5.00;;;;;5.81;100.00;96816.94;6206709;28;96954;-56
2023/12/23 14:17:18;;;;;;;;;6.20;5.80;;;;;5.87;100.00;96839.22;6201245;28;96710;-56
2023/12/23 14:20:21;;;;;;;;;5.00;5.00;;;;;5.82;100.00;96841.78;6210858;28;96260;-56
2023/12/23 14:23:24;;;;;;;;;7.00;7.00;;;;;5.90;100.00;96841.44;6197376;28;96353;-56
2023/12/23 14:26:29;;;;;;;;;5.20;5.20;;;;;5.85;100.00;96846.66;6201295;28;97496;-56
2023/12/23 14:29:32;;;;;;;;;6.60;6.60;;;;;5.82;100.00;96834.56;6183731;28;97644;-57
2023/12/23 14:32:35;;;;;;;;;8.00;8.00;;;;;6.00;100.00;96853.13;6179280;28;96418;-58
2023/12/23 14:35:39;;;;;;;;;8.40;7.40;;;;;6.00;100.00;96855.00;6178082;28;97611;-56
2023/12/23 14:38:42;;;;;;;;;7.20;6.20;;;;;5.94;100.00;96864.78;6163101;28;97043;-56
2023/12/23 14:41:47;;;;;;;;;8.00;7.00;;;;;5.99;100.00;96869.41;6184478;28;96728;-56
2023/12/23 14:44:50;;;;;;;;;8.00;7.40;;;;;5.94;100.00;96872.00;6181773;28;96794;-56
2023/12/23 14:47:53;;;;;;;;;7.60;7.00;;;;;5.88;100.00;96865.75;6178315;28;97022;-56
2023/12/23 14:50:56;;;;;;;;;9.75;8.25;;;;;5.91;100.00;96867.13;6183314;28;96246;-57
2023/12/23 14:53:59;;;;;;;;;11.00;9.40;;;;;5.91;100.00;96873.25;6179663;28;96432;-57
2023/12/23 14:57:04;;;;;;;;;8.00;7.00;;;;;5.90;100.00;96870.84;6182010;28;96367;-57
2023/12/23 15:00:09;;;;;;;;;8.00;7.00;;;;;5.96;100.00;96896.63;6171352;28;96305;-54
2023/12/23 15:03:14;;;;;;;;;10.00;9.00;;;;;5.98;100.00;96887.31;6181596;28;97449;-57
2023/12/23 15:06:18;;;;;;;;;12.00;11.00;;;;;5.98;100.00;96884.63;6184776;28;96704;-56
2023/12/23 15:09:21;;;;;;;;;12.00;11.00;;;;;5.96;100.00;96886.72;6176324;28;96463;-56
2023/12/23 15:12:26;;;;;;;;;12.40;11.00;;;;;6.01;100.00;96888.72;6177445;28;96420;-57
2023/12/23 15:15:29;;;;;;;;;12.00;11.50;;;;;5.95;100.00;96898.50;6184731;28;96976;-56
2023/12/23 15:18:33;;;;;;;;;11.75;11.75;;;;;6.01;100.00;96902.09;6185269;28;96337;-56
2023/12/23 15:21:37;;;;;;;;;13.00;12.00;;;;;6.00;100.00;96892.44;6183921;28;96354;-56
2023/12/23 15:24:40;;;;;;;;;10.25;10.00;;;;;6.07;100.00;96901.09;6187989;28;96141;-56
2023/12/23 15:27:45;;;;;;;;;14.00;13.00;;;;;6.06;100.00;96919.00;6185412;28;96357;-56
2023/12/23 15:30:52;;;;;;;;;10.20;10.20;;;;;5.96;100.00;96918.81;6184670;28;96522;-56
2023/12/23 15:33:58;;;;;;;;;10.25;9.50;;;;;5.95;100.00;96927.09;6189778;28;96238;-54
2023/12/23 15:37:01;;;;;;;;;11.00;11.00;;;;;5.86;100.00;96923.97;6183973;28;96549;-56
2023/12/23 15:40:05;;;;;;;;;16.20;13.60;;;;;5.83;100.00;96945.84;6184619;28;97316;-56
2023/12/23 15:43:10;;;;;;;;;13.00;12.00;;;;;5.78;100.00;96939.56;6178303;28;96672;-56
2023/12/23 15:46:18;;;;;;;;;13.00;12.00;;;;;5.82;100.00;96944.19;6177654;28;97502;-56
2023/12/23 15:49:21;;;;;;;;;14.50;13.50;;;;;5.93;100.00;96948.72;6183788;28;96818;-56
2023/12/23 15:52:24;;;;;;;;;12.75;12.00;;;;;5.93;100.00;96943.38;6182371;28;97061;-59
2023/12/23 15:55:27;;;;;;;;;13.00;11.40;;;;;5.99;100.00;96949.63;6204475;28;96459;-59
2023/12/23 15:58:31;;;;;;;;;12.60;12.60;;;;;5.85;100.00;96948.28;6199679;28;96794;-60
2023/12/23 16:01:35;;;;;;;;;14.60;13.00;;;;;5.99;100.00;96966.50;6204790;28;98007;-58
2023/12/23 16:04:38;;;;;;;;;14.00;13.00;;;;;6.01;100.00;96971.63;6208080;28;98940;-60
2023/12/23 16:07:41;;;;;;;;;11.00;11.00;;;;;6.06;100.00;96983.19;6431572;22;99216;-60
2023/12/23 16:10:44;;;;;;;;;14.00;12.00;;;;;6.11;100.00;96971.78;6229587;27;98636;-60
2023/12/23 16:13:49;;;;;;;;;13.40;13.40;;;;;6.18;100.00;96988.50;6247477;27;96591;-59
2023/12/23 16:16:52;;;;;;;;;13.00;12.00;;;;;6.19;100.00;96989.31;6248872;27;96302;-57
2023/12/23 16:19:55;;;;;;;;;12.40;12.00;;;;;6.15;100.00;96990.84;6249641;27;97167;-57
2023/12/23 16:22:59;;;;;;;;;14.00;13.00;;;;;6.32;100.00;96992.50;6248056;27;96213;-57
2023/12/23 16:26:02;;;;;;;;;16.00;15.00;;;;;6.49;100.00;96993.34;6264359;27;96275;-59
2023/12/23 16:29:08;;;;;;;;;16.00;15.00;;;;;6.71;100.00;96995.31;6278383;27;96878;-59
2023/12/23 16:32:11;;;;;;;;;12.60;11.60;;;;;6.84;100.00;97001.13;6273002;27;96295;-57
2023/12/23 16:35:15;;;;;;;;;8.40;8.00;;;;;6.82;100.00;96997.91;6257276;27;96345;-57
2023/12/23 16:38:18;;;;;;;;;8.00;8.00;;;;;6.79;100.00;97001.06;6232504;27;96288;-57
2023/12/23 16:41:21;;;;;;;;;7.00;7.00;;;;;6.66;100.00;97006.75;6242027;27;97629;-57
2023/12/23 16:44:26;;;;;;;;;8.50;7.00;;;;;6.62;100.00;97016.31;6237017;27;96443;-57
2023/12/23 16:47:29;;;;;;;;;6.00;6.00;;;;;6.48;100.00;97020.34;6239218;27;97241;-56
2023/12/23 16:50:32;;;;;;;;;6.40;6.00;;;;;6.46;100.00;97027.81;6239586;27;96199;-56
2023/12/23 16:53:36;;;;;;;;;8.00;7.00;;;;;6.44;100.00;97012.00;6238219;27;96387;-56
2023/12/23 16:56:40;;;;;;;;;5.00;4.40;;;;;6.38;100.00;97015.63;6243418;27;96830;-56
2023/12/23 16:59:44;;;;;;;;;5.00;4.75;;;;;6.38;100.00;97026.34;6229755;27;96746;-56
2023/12/23 17:02:47;;;;;;;;;5.25;4.75;;;;;6.33;100.00;97030.78;6200541;27;98436;-57
2023/12/23 17:05:51;;;;;;;;;5.00;5.00;;;;;6.27;100.00;97031.75;6244588;27;96894;-56
2023/12/23 17:08:54;;;;;;;;;6.75;5.75;;;;;6.26;100.00;97036.28;6249253;27;97038;-56
2023/12/23 17:11:57;;;;;;;;;4.00;3.80;;;;;6.23;100.00;97030.59;6222002;28;98554;-56
2023/12/23 17:15:02;;;;;;;;;6.00;6.00;;;;;6.23;100.00;97055.50;6220863;27;97495;-57
2023/12/23 17:18:06;;;;;;;;;8.00;7.00;;;;;6.22;100.00;97058.41;6219843;27;98462;-60
2023/12/23 17:21:12;;;;;;;;;7.00;6.00;;;;;6.20;100.00;97057.84;6235326;27;96216;-59
2023/12/23 17:24:15;;;;;;;;;7.00;6.00;;;;;6.31;100.00;97049.75;6238325;27;97766;-59
2023/12/23 17:27:18;;;;;;;;;7.00;7.00;;;;;6.36;100.00;97065.91;6234239;27;96422;-59
2023/12/23 17:30:23;;;;;;;;;6.00;5.25;;;;;6.39;100.00;97060.09;6220434;27;99108;-59
2023/12/23 17:33:26;;;;;;;;;8.00;6.00;;;;;6.41;100.00;97057.97;6234246;27;97123;-59
2023/12/23 17:36:29;;;;;;;;;8.20;7.00;;;;;6.36;100.00;97062.41;6208149;28;96836;-59
2023/12/23 17:39:32;;;;;;;;;8.00;7.60;;;;;6.37;100.00;97083.59;6233127;27;97048;-59
2023/12/23 17:42:35;;;;;;;;;10.20;9.60;;;;;6.30;100.00;97085.63;6215458;27;97201;-59
2023/12/23 17:45:40;;;;;;;;;10.33;10.00;;;;;6.27;100.00;97078.03;6234605;27;96539;-58
2023/12/23 17:48:43;;;;;;;;;10.75;9.75;;;;;6.19;100.00;97080.28;6238034;27;96331;-59
2023/12/23 17:51:46;;;;;;;;;9.80;8.80;;;;;6.19;100.00;97088.31;6239336;27;96308;-58
2023/12/23 17:54:50;;;;;;;;;9.60;9.60;;;;;6.14;100.00;97088.22;6243815;27;96231;-59
2023/12/23 17:57:53;;;;;;;;;8.00;7.60;;;;;6.16;100.00;97099.50;6226054;27;96370;-60
2023/12/23 18:00:57;;;;;;;;;9.00;8.00;;;;;6.19;100.00;97105.19;6240794;27;96314;-59
2023/12/23 18:04:01;;;;;;;;;9.75;8.00;;;;;6.16;100.00;97111.00;6249556;27;97352;-59
2023/12/23 18:07:04;;;;;;;;;9.00;8.00;;;;;6.03;100.00;97108.59;6238074;27;96296;-59
2023/12/23 18:10:08;;;;;;;;;11.00;9.00;;;;;6.05;100.00;97120.69;6242355;27;96833;-59
2023/12/23 18:13:19;;;;;;;;;8.80;7.80;;;;;5.92;100.00;97120.13;6249039;27;96650;-59
2023/12/23 18:16:23;;;;;;;;;8.00;8.00;;;;;5.88;100.00;97125.13;6248390;27;97677;-58
2023/12/23 18:19:26;;;;;;;;;7.00;7.00;;;;;5.80;100.00;97122.78;6224351;27;98387;-59
2023/12/23 18:22:30;;;;;;;;;8.25;7.25;;;;;5.80;100.00;97130.00;6249152;27;96877;-58
2023/12/23 18:25:33;;;;;;;;;8.00;8.00;;;;;5.80;100.00;97138.00;6211319;27;98924;-59
2023/12/23 18:28:36;;;;;;;;;8.00;7.25;;;;;5.65;100.00;97131.28;6250800;27;96233;-56
2023/12/23 18:31:40;;;;;;;;;8.60;8.00;;;;;5.71;100.00;97144.78;6272056;27;96832;-57
2023/12/23 18:34:43;;;;;;;;;7.75;7.00;;;;;5.56;100.00;97147.91;6278803;27;96910;-58
2023/12/23 18:37:46;;;;;;;;;9.20;8.60;;;;;5.51;100.00;97151.28;6266534;27;97725;-56
2023/12/23 18:40:49;;;;;;;;;9.60;9.60;;;;;5.58;100.00;97151.97;6259573;27;96344;-57
2023/12/23 18:43:53;;;;;;;;;7.00;6.80;;;;;5.58;100.00;97145.78;6264532;27;96314;-56
2023/12/23 18:46:57;;;;;;;;;12.00;10.00;;;;;5.63;100.00;97160.09;6274044;27;96298;-56
2023/12/23 18:50:00;;;;;;;;;10.60;10.00;;;;;5.70;100.00;97165.34;6262451;27;97573;-57
2023/12/23 18:53:04;;;;;;;;;11.40;10.00;;;;;5.71;100.00;97163.47;6258963;27;97501;-57
2023/12/23 18:56:07;;;;;;;;;7.25;7.25;;;;;5.72;100.00;97171.25;6262336;27;96237;-57
2023/12/23 18:59:11;;;;;;;;;10.00;10.00;;;;;5.66;100.00;97174.88;6257088;27;96292;-57
2023/12/23 19:02:16;;;;;;;;;8.80;8.00;;;;;5.64;100.00;97184.97;6244000;27;98778;-57
2023/12/23 19:05:19;;;;;;;;;9.00;8.00;;;;;5.65;100.00;97191.94;6258712;27;96381;-57
2023/12/23 19:08:25;;;;;;;;;13.00;12.00;;;;;5.63;100.00;97186.00;6258847;27;97212;-57
2023/12/23 19:11:28;;;;;;;;;13.50;12.00;;;;;5.60;100.00;97189.97;6241547;27;96983;-58
2023/12/23 19:14:31;;;;;;;;;15.00;13.20;;;;;5.57;100.00;97186.97;6271689;27;96611;-56
2023/12/23 19:17:36;;;;;;;;;11.00;10.25;;;;;5.55;100.00;97192.53;6256158;27;96982;-57
2023/12/23 19:20:39;;;;;;;;;13.00;11.40;;;;;5.56;100.00;97185.31;6257164;27;96578;-58
2023/12/23 19:23:43;;;;;;;;;12.40;12.00;;;;;5.65;100.00;97181.25;6235302;27;96669;-56
2023/12/23 19:26:46;;;;;;;;;11.00;10.00;;;;;5.64;100.00;97191.13;6228622;28;97066;-56
2023/12/23 19:29:49;;;;;;;;;11.00;10.00;;;;;5.61;100.00;97193.47;6228458;27;97633;-56
2023/12/23 19:32:53;;;;;;;;;13.00;11.40;;;;;5.50;100.00;97199.59;6241107;27;96412;-56
2023/12/23 19:35:57;;;;;;;;;14.60;14.00;;;;;5.58;100.00;97205.41;6229308;28;96317;-58
2023/12/23 19:39:01;;;;;;;;;15.00;13.00;;;;;5.54;100.00;97211.47;6265249;27;96290;-58
2023/12/23 19:42:05;;;;;;;;;17.40;16.00;;;;;5.59;100.00;97224.94;6260735;27;96319;-58
2023/12/23 19:45:09;;;;;;;;;18.75;16.75;;;;;5.65;100.00;97224.03;6243256;27;97115;-58
2023/12/23 19:48:14;;;;;;;;;19.50;18.00;;;;;5.70;100.00;97229.50;6251492;27;97655;-58
2023/12/23 19:51:18;;;;;;;;;16.60;15.40;;;;;5.75;100.00;97240.31;6250474;27;96269;-58
2023/12/23 19:54:22;;;;;;;;;16.00;15.00;;;;;5.70;100.00;97242.06;6237998;27;96989;-58
2023/12/23 19:57:25;;;;;;;;;15.00;14.00;;;;;5.80;100.00;97245.78;6242238;27;96256;-58
2023/12/23 20:00:29;;;;;;;;;14.00;12.25;;;;;5.78;100.00;97239.03;6243453;27;96578;-58
2023/12/23 20:03:38;;;;;;;;;11.00;10.75;;;;;5.88;100.00;97250.81;6237993;27;96259;-58
2023/12/23 20:06:42;;;;;;;;;15.00;14.00;;;;;5.94;100.00;97260.59;6247260;27;97513;-58
2023/12/23 20:09:45;;;;;;;;;13.60;13.00;;;;;6.03;100.00;97261.06;6248706;27;96730;-58
2023/12/23 20:12:48;;;;;;;;;16.00;16.00;;;;;6.17;100.00;97259.78;6249011;27;96658;-58
2023/12/23 20:15:52;;;;;;;;;14.20;14.00;;;;;6.22;100.00;97257.22;6232034;27;99258;-58
2023/12/23 20:18:57;;;;;;;;;15.80;14.60;;;;;6.19;100.00;97257.69;6251245;27;96295;-58
2023/12/23 20:22:00;;;;;;;;;16.00;14.80;;;;;6.23;100.00;97266.06;6229762;27;96299;-58
2023/12/23 20:25:03;;;;;;;;;16.00;15.00;;;;;6.23;100.00;97280.25;6243399;27;96315;-57
2023/12/23 20:28:07;;;;;;;;;16.00;14.00;;;;;6.27;100.00;97268.03;6261081;27;96283;-58
2023/12/23 20:31:10;;;;;;;;;13.80;12.00;;;;;6.16;100.00;97271.50;6265427;27;96211;-58
2023/12/23 20:34:14;;;;;;;;;14.75;13.00;;;;;6.22;100.00;97299.22;6260775;28;96260;-58
2023/12/23 20:37:17;;;;;;;;;14.80;14.00;;;;;6.32;100.00;97299.44;6254976;27;96315;-58
2023/12/23 20:40:20;;;;;;;;;12.20;12.00;;;;;6.35;100.00;97302.47;6252640;27;96432;-58
2023/12/23 20:43:25;;;;;;;;;16.60;16.00;;;;;6.34;100.00;97305.38;6256491;27;96283;-58
2023/12/23 20:46:28;;;;;;;;;19.00;18.40;;;;;6.33;100.00;97312.59;6256857;27;96315;-56
2023/12/23 20:49:33;;;;;;;;;17.00;16.00;;;;;6.24;100.00;97286.41;6226101;27;99858;-57
2023/12/23 20:52:36;;;;;;;;;19.60;17.60;;;;;6.30;100.00;97299.69;6258239;27;96304;-56
2023/12/23 20:55:39;;;;;;;;;19.80;19.80;;;;;6.36;100.00;97306.78;6255574;27;96208;-56
2023/12/23 20:58:42;;;;;;;;;18.40;18.40;;;;;6.45;100.00;97316.06;6254457;27;96558;-56
2023/12/23 21:01:47;;;;;;;;;20.50;17.50;;;;;6.48;100.00;97310.28;6257179;27;98237;-57
2023/12/23 21:04:51;;;;;;;;;18.00;18.00;;;;;6.45;100.00;97324.09;6256884;27;96350;-56
2023/12/23 21:07:56;;;;;;;;;19.75;17.75;;;;;6.46;100.00;97333.78;6255665;27;96996;-56
2023/12/23 21:10:59;;;;;;;;;18.80;17.20;;;;;6.47;100.00;97332.72;6256832;27;96321;-56
2023/12/23 21:14:02;;;;;;;;;17.00;15.20;;;;;6.49;100.00;97335.19;6257114;27;96282;-56
2023/12/23 21:17:05;;;;;;;;;20.00;17.00;;;;;6.46;100.00;97343.66;6259099;27;96270;-57
2023/12/23 21:20:10;;;;;;;;;16.00;15.00;;;;;6.43;100.00;97346.81;6265682;27;96912;-56
2023/12/23 21:23:13;;;;;;;;;16.00;14.00;;;;;6.46;100.00;97349.00;6258521;27;96294;-58
2023/12/23 21:26:19;;;;;;;;;15.00;14.00;;;;;6.48;100.00;97346.94;6246819;27;97337;-57
2023/12/23 21:29:23;;;;;;;;;14.00;14.00;;;;;6.50;100.00;97356.34;6242721;27;96257;-57
2023/12/23 21:32:26;;;;;;;;;17.25;17.00;;;;;6.53;100.00;97355.06;6222190;28;96712;-57
2023/12/23 21:35:30;;;;;;;;;16.80;15.00;;;;;6.55;100.00;97357.53;6224682;28;97167;-57
2023/12/23 21:38:36;;;;;;;;;19.00;16.00;;;;;6.59;100.00;97361.38;6244215;27;96270;-57
2023/12/23 21:41:39;;;;;;;;;15.20;13.20;;;;;6.51;100.00;97347.28;6242792;27;96854;-57
2023/12/23 21:44:43;;;;;;;;;18.40;17.40;;;;;6.63;100.00;97371.38;6244742;27;96787;-56
2023/12/23 21:47:47;;;;;;;;;17.40;14.00;;;;;6.49;100.00;97365.44;6249755;27;96263;-57
2023/12/23 21:50:53;;;;;;;;;13.00;11.60;;;;;6.44;100.00;97368.00;6246000;27;96228;-56
2023/12/23 21:53:57;;;;;;;;;18.00;14.00;;;;;6.41;100.00;97355.06;6246242;27;96463;-56
2023/12/23 21:57:01;;;;;;;;;14.00;12.00;;;;;6.41;100.00;97381.84;6243306;27;96304;-57
2023/12/23 22:00:07;;;;;;;;;15.60;14.00;;;;;6.56;100.00;97384.06;6245609;27;96249;-56
2023/12/23 22:03:10;;;;;;;;;14.60;14.00;;;;;6.55;100.00;97382.41;6249714;27;96331;-57
2023/12/23 22:06:15;;;;;;;;;16.00;13.00;;;;;6.63;100.00;97382.09;6244259;27;96253;-56
2023/12/23 22:09:19;;;;;;;;;14.00;14.00;;;;;6.59;100.00;97388.13;6248576;27;96592;-56
2023/12/23 22:12:22;;;;;;;;;12.75;12.00;;;;;6.70;100.00;97381.94;6243654;27;96451;-56
2023/12/23 22:15:25;;;;;;;;;12.00;10.60;;;;;6.67;100.00;97393.94;6237987;27;96452;-57
2023/12/23 22:18:28;;;;;;;;;10.60;10.00;;;;;6.74;100.00;97397.34;6237838;27;97304;-56
2023/12/23 22:21:33;;;;;;;;;13.00;11.60;;;;;6.79;100.00;97394.75;6237232;27;97466;-57
2023/12/23 22:24:36;;;;;;;;;13.00;12.75;;;;;6.84;100.00;97397.53;6241249;27;96318;-57
2023/12/23 22:27:39;;;;;;;;;13.40;12.80;;;;;6.94;100.00;97396.94;6236205;27;96445;-57
2023/12/23 22:30:42;;;;;;;;;14.00;12.00;;;;;6.99;100.00;97388.25;6232055;27;96828;-57
2023/12/23 22:33:46;;;;;;;;;12.20;11.20;;;;;6.97;100.00;97391.13;6217055;28;96342;-57
2023/12/23 22:36:55;;;;;;;;;14.00;14.00;;;;;7.00;100.00;97390.66;6235081;27;97600;-57
2023/12/23 22:39:59;;;;;;;;;15.60;14.60;;;;;6.99;100.00;97402.41;6232065;27;96995;-57
2023/12/23 22:43:03;;;;;;;;;16.00;14.00;;;;;6.94;100.00;97387.06;6237311;27;96249;-57
2023/12/23 22:46:06;;;;;;;;;14.67;13.67;;;;;6.99;100.00;97405.09;6230488;28;97822;-56
2023/12/23 22:49:09;;;;;;;;;13.00;12.00;;;;;7.00;100.00;97393.34;6235236;27;96554;-57
2023/12/23 22:52:13;;;;;;;;;16.00;16.00;;;;;7.04;100.00;97413.25;6239607;27;96230;-57
2023/12/23 22:55:16;;;;;;;;;16.20;14.60;;;;;6.87;100.00;97399.78;6234379;27;96372;-56
2023/12/23 22:58:20;;;;;;;;;19.80;17.00;;;;;6.97;100.00;97402.69;6239587;27;96809;-57
2023/12/23 23:01:23;;;;;;;;;16.00;14.80;;;;;7.00;100.00;97403.25;6237096;27;96506;-57
2023/12/23 23:04:26;;;;;;;;;21.20;19.00;;;;;6.96;100.00;97416.28;6241566;27;96836;-56
2023/12/23 23:07:31;;;;;;;;;18.00;18.00;;;;;7.00;100.00;97414.78;6247373;27;97184;-57
2023/12/23 23:10:34;;;;;;;;;16.20;15.20;;;;;7.05;100.00;97425.59;6248767;27;96937;-57
2023/12/23 23:13:37;;;;;;;;;18.00;16.00;;;;;7.06;100.00;97423.75;6246889;27;96565;-56
2023/12/23 23:16:40;;;;;;;;;18.60;18.60;;;;;6.98;100.00;97430.28;6249701;27;96325;-57
2023/12/23 23:19:43;;;;;;;;;18.50;16.00;;;;;6.98;100.00;97435.66;6254935;27;96352;-56
2023/12/23 23:22:48;;;;;;;;;21.75;20.75;;;;;6.97;100.00;97429.47;6253526;27;96261;-57
2023/12/23 23:25:51;;;;;;;;;18.80;17.00;;;;;6.87;100.00;97439.94;6253411;27;96223;-57
2023/12/23 23:28:55;;;;;;;;;16.33;16.00;;;;;6.87;100.00;97441.81;6233778;27;97254;-57
2023/12/23 23:31:58;;;;;;;;;23.00;21.00;;;;;6.89;100.00;97440.50;6242245;27;96332;-57
2023/12/23 23:35:01;;;;;;;;;18.50;16.00;;;;;6.91;100.00;97445.66;6229102;27;96613;-56
2023/12/23 23:38:15;;;;;;;;;15.50;15.00;;;;;6.93;100.00;97449.75;6228656;28;96939;-57
2023/12/23 23:41:20;;;;;;;;;16.00;15.40;;;;;6.94;100.00;97448.66;6254399;27;96248;-57
2023/12/23 23:44:23;;;;;;;;;20.60;18.20;;;;;6.93;100.00;97452.41;6260698;27;97540;-57
2023/12/23 23:47:26;;;;;;;;;20.00;18.25;;;;;6.91;100.00;97446.47;6262013;27;96535;-56
2023/12/23 23:50:29;;;;;;;;;17.40;15.40;;;;;6.93;100.00;97454.28;6242895;27;96178;-57
2023/12/23 23:53:34;;;;;;;;;14.50;13.00;;;;;6.89;100.00;97437.84;6252775;27;96326;-57
2023/12/23 23:56:38;;;;;;;;;18.40;17.20;;;;;6.99;100.00;97447.97;6242436;27;96729;-57
2023/12/23 23:59:42;;;;;;;;;12.20;11.80;;;;;6.95;100.00;97444.94;6253763;27;96488;-56
